createdAt,value
2023-02-22T00:01:37.930Z,22.50
2023-02-22T00:04:07.103Z,24.87
2023-02-22T00:06:34.645Z,15.80
2023-02-22T00:09:04.794Z,19.80
2023-02-22T00:11:32.196Z,18.33
2023-02-22T00:13:59.603Z,17.20
2023-02-22T00:16:27.732Z,20.43
2023-02-22T00:18:55.546Z,18.10
2023-02-22T00:21:23.146Z,29.03
2023-02-22T00:23:50.722Z,23.73
2023-02-22T00:26:20.057Z,24.50
2023-02-22T00:28:50.092Z,20.77
2023-02-22T00:31:18.128Z,35.87
2023-02-22T00:33:45.847Z,35.50
2023-02-22T00:36:14.349Z,76.13
2023-02-22T00:38:42.317Z,33.63
2023-02-22T00:41:10.372Z,24.93
2023-02-22T00:43:37.726Z,33.80
2023-02-22T00:46:05.296Z,39.00
2023-02-22T00:48:32.737Z,22.40
2023-02-22T00:51:00.260Z,19.00
2023-02-22T00:53:27.616Z,26.63
2023-02-22T00:55:55.092Z,23.00
2023-02-22T00:58:24.279Z,25.97
2023-02-22T01:00:51.744Z,15.27
2023-02-22T01:03:20.587Z,13.23
2023-02-22T01:05:48.563Z,21.93
2023-02-22T01:08:17.075Z,26.17
2023-02-22T01:10:44.871Z,25.50
2023-02-22T01:13:12.843Z,23.73
2023-02-22T01:15:42.346Z,28.77
2023-02-22T01:18:10.187Z,16.27
2023-02-22T01:20:37.848Z,19.90
2023-02-22T01:23:07.742Z,19.17
2023-02-22T01:25:36.225Z,26.60
2023-02-22T01:28:05.732Z,31.20
2023-02-22T01:30:36.110Z,16.63
2023-02-22T01:33:06.503Z,17.37
2023-02-22T01:35:37.443Z,18.47
2023-02-22T01:38:04.645Z,14.30
2023-02-22T01:40:36.691Z,15.17
2023-02-22T01:43:18.998Z,20.43
2023-02-22T01:45:55.079Z,11.77
2023-02-22T01:48:56.749Z,14.30
2023-02-22T01:51:45.821Z,19.20
2023-02-22T01:54:28.511Z,23.17
2023-02-22T01:57:24.775Z,17.37
2023-02-22T01:59:56.800Z,20.83
2023-02-22T02:02:25.178Z,17.13
2023-02-22T02:04:56.508Z,17.57
2023-02-22T02:07:24.804Z,16.60
2023-02-22T02:10:03.546Z,17.23
2023-02-22T02:12:34.465Z,17.23
2023-02-22T02:15:29.652Z,14.60
2023-02-22T02:18:06.305Z,10.43
2023-02-22T02:21:16.600Z,18.70
2023-02-22T02:24:20.724Z,12.60
2023-02-22T02:27:23.096Z,12.30
2023-02-22T02:30:18.293Z,14.37
2023-02-22T02:33:13.020Z,12.60
2023-02-22T02:36:03.358Z,13.93
2023-02-22T02:38:47.309Z,23.60
2023-02-22T02:41:39.823Z,14.37
2023-02-22T02:44:22.487Z,16.57
2023-02-22T02:47:08.030Z,14.60
2023-02-22T02:49:51.709Z,15.00
2023-02-22T02:52:21.119Z,15.60
2023-02-22T02:54:49.392Z,11.50
2023-02-22T02:57:16.761Z,10.67
2023-02-22T02:59:43.877Z,19.50
2023-02-22T03:02:55.825Z,13.97
2023-02-22T03:05:48.091Z,10.70
2023-02-22T03:08:40.953Z,13.63
2023-02-22T03:11:17.429Z,19.03
2023-02-22T03:14:12.118Z,17.00
2023-02-22T03:17:18.556Z,17.30
2023-02-22T03:19:52.833Z,11.00
2023-02-22T03:23:08.084Z,11.00
2023-02-22T03:25:43.649Z,11.17
2023-02-22T03:28:14.816Z,9.50
2023-02-22T03:30:49.279Z,13.53
2023-02-22T03:33:33.850Z,8.43
2023-02-22T03:36:14.529Z,11.60
2023-02-22T03:38:43.088Z,22.83
2023-02-22T03:41:18.020Z,16.30
2023-02-22T03:43:51.062Z,15.63
2023-02-22T03:46:21.784Z,17.83
2023-02-22T03:49:00.331Z,9.37
2023-02-22T03:51:31.898Z,13.63
2023-02-22T03:54:01.310Z,15.10
2023-02-22T03:56:47.103Z,15.07
2023-02-22T03:59:14.740Z,10.43
2023-02-22T04:01:42.109Z,18.47
2023-02-22T04:04:09.098Z,21.30
2023-02-22T04:06:37.998Z,9.10
2023-02-22T04:09:05.277Z,9.17
2023-02-22T04:11:32.668Z,9.93
2023-02-22T04:14:00.785Z,8.33
2023-02-22T04:16:28.311Z,10.70
2023-02-22T04:18:55.580Z,9.77
2023-02-22T04:21:23.349Z,10.43
2023-02-22T04:23:51.199Z,12.50
2023-02-22T04:26:18.626Z,9.60
2023-02-22T04:28:51.166Z,8.20
2023-02-22T04:31:19.983Z,6.93
2023-02-22T04:33:47.553Z,11.50
2023-02-22T04:36:18.309Z,9.87
2023-02-22T04:38:46.066Z,8.73
2023-02-22T04:41:13.964Z,13.00
2023-02-22T04:43:41.915Z,8.20
2023-02-22T04:46:16.078Z,15.40
2023-02-22T04:48:43.476Z,9.80
2023-02-22T04:51:10.584Z,8.87
2023-02-22T04:53:41.813Z,11.17
2023-02-22T04:56:08.958Z,19.00
2023-02-22T04:58:35.946Z,10.63
2023-02-22T05:01:03.223Z,16.13
2023-02-22T05:03:30.505Z,13.03
2023-02-22T05:05:57.567Z,10.70
2023-02-22T05:08:24.520Z,16.37
2023-02-22T05:10:51.495Z,19.97
2023-02-22T05:13:18.417Z,12.97
2023-02-22T05:15:45.545Z,10.20
2023-02-22T05:18:12.643Z,12.17
2023-02-22T05:20:39.640Z,12.97
2023-02-22T05:23:06.636Z,9.87
2023-02-22T05:25:34.098Z,20.23
2023-02-22T05:28:05.516Z,19.60
2023-02-22T05:30:36.134Z,13.30
2023-02-22T05:33:03.144Z,13.50
2023-02-22T05:35:30.593Z,11.33
2023-02-22T05:37:59.729Z,10.67
2023-02-22T05:40:27.863Z,11.80
2023-02-22T05:42:55.159Z,12.50
2023-02-22T05:45:26.414Z,13.07
2023-02-22T05:47:55.049Z,13.00
2023-02-22T05:50:22.449Z,13.43
2023-02-22T05:52:49.717Z,13.87
2023-02-22T05:55:20.318Z,25.40
2023-02-22T05:57:47.511Z,13.20
2023-02-22T06:00:28.162Z,16.13
2023-02-22T06:03:01.676Z,13.30
2023-02-22T06:05:29.617Z,20.13
2023-02-22T06:07:58.247Z,14.87
2023-02-22T06:10:26.983Z,20.67
2023-02-22T06:12:55.192Z,12.07
2023-02-22T06:15:24.771Z,15.17
2023-02-22T06:17:52.920Z,29.53
2023-02-22T06:20:23.234Z,23.23
2023-02-22T06:22:52.140Z,19.20
2023-02-22T06:25:24.083Z,25.63
2023-02-22T06:27:51.556Z,23.13
2023-02-22T06:30:22.287Z,18.93
2023-02-22T06:32:49.871Z,21.30
2023-02-22T06:35:17.566Z,17.63
2023-02-22T06:37:45.238Z,17.70
2023-02-22T06:40:13.194Z,11.83
2023-02-22T06:42:40.928Z,22.80
2023-02-22T06:45:09.396Z,16.50
2023-02-22T06:47:43.564Z,25.33
2023-02-22T06:50:30.322Z,17.63
2023-02-22T06:52:58.611Z,31.10
2023-02-22T06:55:29.490Z,34.07
2023-02-22T06:57:56.778Z,23.73
2023-02-22T07:00:26.098Z,25.70
2023-02-22T07:02:54.352Z,23.53
2023-02-22T07:05:23.226Z,33.30
2023-02-22T07:07:54.260Z,37.97
2023-02-22T07:10:28.827Z,38.27
2023-02-22T07:12:55.927Z,21.33
2023-02-22T07:15:26.028Z,27.43
2023-02-22T07:17:53.788Z,26.80
2023-02-22T07:20:22.719Z,16.73
2023-02-22T07:22:50.159Z,22.53
2023-02-22T07:25:17.501Z,16.87
2023-02-22T07:27:44.731Z,21.47
2023-02-22T07:30:34.177Z,21.03
2023-02-22T07:33:07.157Z,21.47
2023-02-22T07:35:48.864Z,18.73
2023-02-22T07:38:18.191Z,26.03
2023-02-22T07:40:45.738Z,13.10
2023-02-22T07:43:31.104Z,16.97
2023-02-22T07:46:02.857Z,15.00
2023-02-22T07:48:32.056Z,19.23
2023-02-22T07:50:59.687Z,15.33
2023-02-22T07:53:30.354Z,23.50
2023-02-22T07:55:58.564Z,19.50
2023-02-22T07:58:28.520Z,11.60
2023-02-22T08:00:56.111Z,16.00
2023-02-22T08:03:26.028Z,18.17
2023-02-22T08:05:55.919Z,9.17
2023-02-22T08:08:23.658Z,14.17
2023-02-22T08:10:52.058Z,11.13
2023-02-22T08:13:19.905Z,22.30
2023-02-22T08:15:49.478Z,10.50
2023-02-22T08:18:19.680Z,8.27
2023-02-22T08:20:49.111Z,8.17
2023-02-22T08:23:18.360Z,9.70
2023-02-22T08:25:45.526Z,7.43
2023-02-22T08:28:17.556Z,9.30
2023-02-22T08:30:44.578Z,6.60
2023-02-22T08:33:15.945Z,7.10
2023-02-22T08:35:43.224Z,9.73
2023-02-22T08:38:20.438Z,13.07
2023-02-22T08:40:48.923Z,10.63
2023-02-22T08:43:16.715Z,8.73
2023-02-22T08:45:45.763Z,9.20
2023-02-22T08:48:14.191Z,13.43
2023-02-22T08:50:41.991Z,9.57
2023-02-22T08:53:11.527Z,7.80
2023-02-22T08:55:39.870Z,13.83
2023-02-22T08:58:10.517Z,10.43
2023-02-22T09:00:39.538Z,6.47
2023-02-22T09:03:10.451Z,7.60
2023-02-22T09:05:37.817Z,9.10
2023-02-22T09:08:05.216Z,7.67
2023-02-22T09:10:34.461Z,6.83
2023-02-22T09:13:04.279Z,7.30
2023-02-22T09:15:34.050Z,10.17
2023-02-22T09:18:01.152Z,9.97
2023-02-22T09:20:29.240Z,32.07
2023-02-22T09:22:56.646Z,15.33
2023-02-22T09:25:24.016Z,8.40
2023-02-22T09:27:55.652Z,21.43
2023-02-22T09:30:32.244Z,7.60
2023-02-22T09:33:09.948Z,7.43
2023-02-22T09:35:42.229Z,7.57
2023-02-22T09:38:11.434Z,7.30
2023-02-22T09:40:46.238Z,14.67
2023-02-22T09:43:21.974Z,10.67
2023-02-22T09:46:21.113Z,8.30
2023-02-22T09:49:18.004Z,12.70
2023-02-22T09:52:18.789Z,10.20
2023-02-22T09:54:58.104Z,13.23
2023-02-22T09:57:35.784Z,10.17
2023-02-22T10:00:23.451Z,10.80
2023-02-22T10:03:25.259Z,18.20
2023-02-22T10:06:10.632Z,12.87
2023-02-22T10:08:38.859Z,13.87
2023-02-22T10:11:23.510Z,26.07
2023-02-22T10:14:36.601Z,10.30
2023-02-22T10:17:22.342Z,11.10
2023-02-22T10:20:07.163Z,7.63
2023-02-22T10:22:39.698Z,9.50
2023-02-22T10:25:18.044Z,11.70
2023-02-22T10:28:03.995Z,18.33
2023-02-22T10:30:41.859Z,9.23
2023-02-22T10:33:22.707Z,10.63
2023-02-22T10:35:53.650Z,9.40
2023-02-22T10:38:32.736Z,8.27
2023-02-22T10:41:24.094Z,10.93
2023-02-22T10:43:51.114Z,11.80
2023-02-22T10:46:22.538Z,9.33
2023-02-22T10:48:54.569Z,11.10
2023-02-22T10:51:21.935Z,9.43
2023-02-22T10:54:13.692Z,9.93
2023-02-22T10:56:58.025Z,10.73
2023-02-22T10:59:35.765Z,9.20
2023-02-22T11:02:27.568Z,9.90
2023-02-22T11:04:58.715Z,21.47
2023-02-22T11:07:30.970Z,10.43
2023-02-22T11:10:02.175Z,10.13
2023-02-22T11:12:34.191Z,8.93
2023-02-22T11:15:29.001Z,12.37
2023-02-22T11:17:57.788Z,9.00
2023-02-22T11:20:38.391Z,9.53
2023-02-22T11:23:08.326Z,11.13
2023-02-22T11:25:39.721Z,7.73
2023-02-22T11:28:32.901Z,8.23
2023-02-22T11:31:15.620Z,11.90
2023-02-22T11:36:43.105Z,20.60
2023-02-22T11:39:27.026Z,11.30
2023-02-22T11:41:56.715Z,13.53
2023-02-22T11:44:32.403Z,7.87
2023-02-22T11:47:06.870Z,8.03
2023-02-22T11:49:39.732Z,11.00
2023-02-22T11:52:34.721Z,8.53
2023-02-22T11:55:09.772Z,10.60
2023-02-22T11:57:52.324Z,7.27
2023-02-22T12:00:26.098Z,10.33
2023-02-22T12:03:14.761Z,9.80
2023-02-22T12:06:32.076Z,10.40
2023-02-22T12:09:27.000Z,8.40
2023-02-22T12:12:43.726Z,8.47
2023-02-22T12:15:34.799Z,8.53
2023-02-22T12:18:23.213Z,8.93
2023-02-22T12:21:06.082Z,10.20
2023-02-22T12:24:02.525Z,13.43
2023-02-22T12:26:43.394Z,13.43
2023-02-22T12:29:27.635Z,12.77
2023-02-22T12:32:38.105Z,7.53
2023-02-22T12:35:21.344Z,6.50
2023-02-22T12:38:14.955Z,15.33
2023-02-22T12:41:08.878Z,10.93
2023-02-22T12:43:41.247Z,8.80
2023-02-22T12:46:24.078Z,8.70
2023-02-22T12:49:39.485Z,8.93
2023-02-22T12:52:41.981Z,9.40
2023-02-22T12:55:31.690Z,8.83
2023-02-22T12:58:46.727Z,8.60
2023-02-22T13:01:22.154Z,20.30
2023-02-22T13:03:49.324Z,8.90
2023-02-22T13:06:57.140Z,14.53
2023-02-22T13:10:12.771Z,9.13
2023-02-22T13:13:27.815Z,13.73
2023-02-22T13:16:21.817Z,16.53
2023-02-22T13:19:04.551Z,12.03
2023-02-22T13:21:58.211Z,9.00
2023-02-22T13:24:30.326Z,7.57
2023-02-22T13:27:08.820Z,11.47
2023-02-22T13:29:44.901Z,8.40
2023-02-22T13:33:03.286Z,12.77
2023-02-22T13:35:41.991Z,8.77
2023-02-22T13:38:43.413Z,11.00
2023-02-22T13:41:41.348Z,13.30
2023-02-22T13:44:45.142Z,18.43
2023-02-22T13:47:46.299Z,18.20
2023-02-22T13:50:52.410Z,9.60
2023-02-22T13:53:30.432Z,11.37
2023-02-22T13:56:00.809Z,16.23
2023-02-22T13:58:27.996Z,9.70
2023-02-22T14:00:58.314Z,9.60
2023-02-22T14:03:36.340Z,25.73
2023-02-22T14:06:06.976Z,9.33
2023-02-22T14:08:33.840Z,12.73
2023-02-22T14:11:07.281Z,9.17
2023-02-22T14:13:53.757Z,9.63
2023-02-22T14:16:27.664Z,11.00
2023-02-22T14:19:13.333Z,10.30
2023-02-22T14:22:03.732Z,10.90
2023-02-22T14:24:47.765Z,8.60
2023-02-22T14:27:17.558Z,6.83
2023-02-22T14:29:55.196Z,11.17
2023-02-22T14:32:32.644Z,6.27
2023-02-22T14:35:17.199Z,8.20
2023-02-22T14:37:59.215Z,8.77
2023-02-22T14:40:33.295Z,8.70
2023-02-22T14:43:19.999Z,6.37
2023-02-22T14:45:53.584Z,8.43
2023-02-22T14:48:39.290Z,6.60
2023-02-22T14:51:26.515Z,7.53
2023-02-22T14:54:03.908Z,14.53
2023-02-22T14:56:44.290Z,18.53
2023-02-22T14:59:20.700Z,11.07
2023-02-22T15:02:01.535Z,10.43
2023-02-22T15:04:31.448Z,20.83
2023-02-22T15:07:00.874Z,15.10
2023-02-22T15:09:37.293Z,12.53
2023-02-22T15:12:04.086Z,33.03
2023-02-22T15:14:37.723Z,20.40
2023-02-22T15:17:16.222Z,25.43
2023-02-22T15:19:43.229Z,19.80
2023-02-22T15:22:26.964Z,14.83
2023-02-22T15:25:01.351Z,13.90
2023-02-22T15:27:29.130Z,11.50
2023-02-22T15:30:04.486Z,17.67
2023-02-22T15:32:53.257Z,9.20
2023-02-22T15:35:31.061Z,12.13
2023-02-22T15:38:03.989Z,12.20
2023-02-22T15:40:33.243Z,13.03
2023-02-22T15:43:04.316Z,9.97
2023-02-22T15:45:34.655Z,23.97
2023-02-22T15:48:03.189Z,17.63
2023-02-22T15:50:35.027Z,29.73
2023-02-22T15:53:02.008Z,17.40
2023-02-22T15:55:38.819Z,10.67
2023-02-22T15:58:14.539Z,14.33
2023-02-22T16:01:05.745Z,14.30
2023-02-22T16:03:44.992Z,21.13
2023-02-22T16:06:35.268Z,18.50
2023-02-22T16:09:26.003Z,15.30
2023-02-22T16:12:21.829Z,17.87
2023-02-22T16:14:50.013Z,22.87
2023-02-22T16:17:46.869Z,15.80
2023-02-22T16:20:24.818Z,18.20
2023-02-22T16:22:51.787Z,23.80
2023-02-22T16:25:18.693Z,14.83
2023-02-22T16:27:52.672Z,15.97
2023-02-22T16:30:28.888Z,10.70
2023-02-22T16:32:57.388Z,14.37
2023-02-22T16:35:29.421Z,13.87
2023-02-22T16:38:16.643Z,18.13
2023-02-22T16:40:50.535Z,15.80
2023-02-22T16:43:23.915Z,18.90
2023-02-22T16:45:52.827Z,17.80
2023-02-22T16:48:25.239Z,13.90
2023-02-22T16:50:54.485Z,21.23
2023-02-22T16:53:24.461Z,20.43
2023-02-22T16:55:57.920Z,17.20
2023-02-22T16:58:29.287Z,44.50
2023-02-22T17:00:57.481Z,42.13
2023-02-22T17:03:25.880Z,46.37
2023-02-22T17:05:53.710Z,29.00
2023-02-22T17:08:21.255Z,40.13
2023-02-22T17:10:51.514Z,30.30
2023-02-22T17:13:26.628Z,43.17
2023-02-22T17:15:54.991Z,48.47
2023-02-22T17:18:23.807Z,39.37
2023-02-22T17:20:52.645Z,49.33
2023-02-22T17:23:20.511Z,29.57
2023-02-22T17:25:55.236Z,21.73
2023-02-22T17:28:24.409Z,22.90
2023-02-22T17:30:53.090Z,19.50
2023-02-22T17:33:26.691Z,17.90
2023-02-22T17:35:56.316Z,28.20
2023-02-22T17:38:23.819Z,28.73
2023-02-22T17:40:57.308Z,17.67
2023-02-22T17:43:26.079Z,30.60
2023-02-22T17:45:53.859Z,28.00
2023-02-22T17:48:23.912Z,40.20
2023-02-22T17:50:52.256Z,22.73
2023-02-22T17:53:22.769Z,32.20
2023-02-22T17:55:50.503Z,36.20
2023-02-22T17:58:18.496Z,26.30
2023-02-22T18:00:48.099Z,28.13
2023-02-22T18:03:25.436Z,27.33
2023-02-22T18:05:56.332Z,36.07
2023-02-22T18:08:25.401Z,28.23
2023-02-22T18:10:56.377Z,29.63
2023-02-22T18:13:26.366Z,30.17
2023-02-22T18:15:53.837Z,49.63
2023-02-22T18:18:22.148Z,32.87
2023-02-22T18:20:51.442Z,39.07
2023-02-22T18:23:22.216Z,36.23
2023-02-22T18:26:09.094Z,35.50
2023-02-22T18:28:37.491Z,32.67
2023-02-22T18:31:09.508Z,38.27
2023-02-22T18:33:37.160Z,31.57
2023-02-22T18:36:05.025Z,100.70
2023-02-22T18:38:32.498Z,44.60
2023-02-22T18:41:05.329Z,39.90
2023-02-22T18:43:35.303Z,41.63
2023-02-22T18:46:13.918Z,34.27
2023-02-22T18:48:41.703Z,40.63
2023-02-22T18:51:11.479Z,41.90
2023-02-22T18:53:40.950Z,40.17
2023-02-22T18:56:10.848Z,27.73
2023-02-22T18:58:38.952Z,33.93
2023-02-22T19:01:12.146Z,36.57
2023-02-22T19:03:39.597Z,24.83
2023-02-22T19:06:11.417Z,36.27
2023-02-22T19:08:40.622Z,34.87
2023-02-22T19:11:10.425Z,35.83
2023-02-22T19:13:38.421Z,37.97
2023-02-22T19:16:07.456Z,30.83
2023-02-22T19:18:34.947Z,34.83
2023-02-22T19:21:03.724Z,33.50
2023-02-22T19:23:34.466Z,56.40
2023-02-22T19:26:03.868Z,31.70
2023-02-22T19:28:34.379Z,25.63
2023-02-22T19:31:18.582Z,31.37
2023-02-22T19:33:47.823Z,33.70
2023-02-22T19:36:16.204Z,28.10
2023-02-22T19:38:43.920Z,35.33
2023-02-22T19:41:15.433Z,42.83
2023-02-22T19:43:43.524Z,41.40
2023-02-22T19:46:11.736Z,41.77
2023-02-22T19:48:39.380Z,40.37
2023-02-22T19:51:11.805Z,34.70
2023-02-22T19:53:40.968Z,46.53
2023-02-22T19:56:13.043Z,38.67
2023-02-22T19:58:41.384Z,41.00
2023-02-22T20:01:15.812Z,42.87
2023-02-22T20:03:43.659Z,37.33
2023-02-22T20:06:11.963Z,65.17
2023-02-22T20:08:42.151Z,45.33
2023-02-22T20:11:10.505Z,41.23
2023-02-22T20:13:41.692Z,40.60
2023-02-22T20:16:10.071Z,37.43
2023-02-22T20:18:37.710Z,50.10
2023-02-22T20:21:13.931Z,48.90
2023-02-22T20:23:44.206Z,55.30
2023-02-22T20:26:20.570Z,34.00
2023-02-22T20:28:48.100Z,55.03
2023-02-22T20:31:16.658Z,38.73
2023-02-22T20:33:48.898Z,34.57
2023-02-22T20:36:17.943Z,45.67
2023-02-22T20:38:45.969Z,35.90
2023-02-22T20:41:16.508Z,41.90
2023-02-22T20:43:44.249Z,42.20
2023-02-22T20:46:11.704Z,40.17
2023-02-22T20:48:39.069Z,34.10
2023-02-22T20:51:11.138Z,29.50
2023-02-22T20:53:44.739Z,37.30
2023-02-22T20:56:23.150Z,45.53
2023-02-22T20:58:50.966Z,46.63
2023-02-22T21:01:20.090Z,43.70
2023-02-22T21:03:48.114Z,30.80
2023-02-22T21:06:17.732Z,42.00
2023-02-22T21:08:46.198Z,48.63
2023-02-22T21:11:15.345Z,40.83
2023-02-22T21:13:43.220Z,38.03
2023-02-22T21:16:17.204Z,49.50
2023-02-22T21:18:44.568Z,49.70
2023-02-22T21:21:12.581Z,46.03
2023-02-22T21:23:42.909Z,37.10
2023-02-22T21:26:17.624Z,37.63
2023-02-22T21:28:51.401Z,39.70
2023-02-22T21:31:20.290Z,37.33
2023-02-22T21:33:50.629Z,37.13
2023-02-22T21:36:19.022Z,37.77
2023-02-22T21:38:53.228Z,51.77
2023-02-22T21:41:23.520Z,45.80
2023-02-22T21:43:51.650Z,47.90
2023-02-22T21:46:19.676Z,53.30
2023-02-22T21:48:50.315Z,45.70
2023-02-22T21:51:21.321Z,39.27
2023-02-22T21:53:52.106Z,42.33
2023-02-22T21:56:24.263Z,37.90
2023-02-22T21:58:59.099Z,60.03
2023-02-22T22:01:28.465Z,44.10
2023-02-22T22:03:59.442Z,42.47
2023-02-22T22:06:28.213Z,45.57
2023-02-22T22:08:55.843Z,40.67
2023-02-22T22:11:25.020Z,41.80
2023-02-22T22:13:57.321Z,45.37
2023-02-22T22:16:27.115Z,37.00
2023-02-22T22:18:55.525Z,47.57
2023-02-22T22:21:24.175Z,40.17
2023-02-22T22:23:55.901Z,46.57
2023-02-22T22:26:24.683Z,48.73
2023-02-22T22:28:56.035Z,55.73
2023-02-22T22:31:25.965Z,42.00
2023-02-22T22:33:54.511Z,46.53
2023-02-22T22:36:22.877Z,41.90
2023-02-22T22:38:52.554Z,42.60
2023-02-22T22:41:21.985Z,45.27
2023-02-22T22:43:49.342Z,48.60
2023-02-22T22:46:17.930Z,48.50
2023-02-22T22:48:47.248Z,35.83
2023-02-22T22:51:19.973Z,36.63
2023-02-22T22:53:48.989Z,48.20
2023-02-22T22:56:25.929Z,54.60
2023-02-22T22:58:55.588Z,54.37
2023-02-22T23:01:32.564Z,39.93
2023-02-22T23:04:02.400Z,42.30
2023-02-22T23:06:32.969Z,59.73
2023-02-22T23:09:15.274Z,37.10
2023-02-22T23:11:50.583Z,46.13
2023-02-22T23:14:24.031Z,38.67
2023-02-22T23:16:53.365Z,59.67
2023-02-22T23:19:20.726Z,52.37
2023-02-22T23:21:49.923Z,43.07
2023-02-22T23:24:19.658Z,58.30
2023-02-22T23:26:50.357Z,54.63
2023-02-22T23:29:19.381Z,53.23
2023-02-22T23:31:48.432Z,46.63
2023-02-22T23:34:18.377Z,53.33
2023-02-22T23:36:46.693Z,53.07
2023-02-22T23:39:15.727Z,54.20
2023-02-22T23:41:43.059Z,44.10
2023-02-22T23:44:17.441Z,39.53
2023-02-22T23:46:48.451Z,46.23
2023-02-22T23:49:20.646Z,47.17
2023-02-22T23:51:48.789Z,55.10
2023-02-22T23:54:19.501Z,45.27
2023-02-22T23:56:56.158Z,38.70
2023-02-22T23:59:25.194Z,41.30
